WetterOnline ( https://www.wetteronline.de )

Wetter aktuell Schkopau

Aktuelles Wetter: Leipzig/Halle (136m)

6-stündlich | Neueste Meldungen
Ortszeit Temperatur Wetter
Di, 19.10. 20:00 14.0° C leichte Schauer
Di, 19.10. 14:00 16.2° C wolkig
Di, 19.10. 8:00 9.4° C bewölkt
Di, 19.10. 2:00 8.3° C leicht bewölkt
Mo, 18.10. 20:00 11.7° C wolkig
Mo, 18.10. 14:00 14.1° C leicht bewölkt
Mo, 18.10. 8:00 8.0° C wolkig
Mo, 18.10. 2:00 8.8° C bewölkt
Ortszeit Temperatur Wetter
Di, 19.10. 21:20 14° C bewölkt
Di, 19.10. 21:00 14.1° C bedeckt
Di, 19.10. 20:50 14.1° C -
Di, 19.10. 20:40 14.0° C -
Di, 19.10. 20:30 14.1° C -
Di, 19.10. 20:20 14.1° C -
Di, 19.10. 20:00 14.0° C leichte Schauer
Di, 19.10. 19:30 14.1° C -
Di, 19.10. 19:00 14.3° C bewölkt
Di, 19.10. 18:30 14.3° C -
Di, 19.10. 18:00 14.6° C bedeckt
Ortszeit Relative Feuchte Sichtweite
Di, 19.10. 20:00 80% 45 km
Di, 19.10. 14:00 67% 45 km
Di, 19.10. 8:00 83% 22 km
Di, 19.10. 2:00 89% 25 km
Mo, 18.10. 20:00 72% 50 km
Mo, 18.10. 14:00 56% 55 km
Mo, 18.10. 8:00 87% 35 km
Mo, 18.10. 2:00 86% 35 km
Ortszeit Relative Feuchte Sichtweite
Di, 19.10. 21:20 82% >10 km
Di, 19.10. 21:00 81% 65 km
Di, 19.10. 20:50 81% -
Di, 19.10. 20:40 81% -
Di, 19.10. 20:30 80% 65 km
Di, 19.10. 20:20 80% -
Di, 19.10. 20:00 80% 45 km
Di, 19.10. 19:30 79% >70 km
Di, 19.10. 19:00 79% 65 km
Di, 19.10. 18:30 79% 60 km
Di, 19.10. 18:00 77% 60 km
Ortszeit Niederschlagsmenge Niederschlagsart
Di, 19.10. 20:00 0.1 l/m2 in 12 Std. -
Di, 19.10. 14:00 0.0 l/m2 in 6 Std. -
Di, 19.10. 8:00 0.0 l/m2 in 12 Std. -
Di, 19.10. 2:00 0.0 l/m2 in 6 Std. -
Mo, 18.10. 20:00 0.0 l/m2 in 12 Std. -
Mo, 18.10. 14:00 0.0 l/m2 in 6 Std. -
Mo, 18.10. 8:00 0.1 l/m2 in 12 Std. -
Mo, 18.10. 2:00 0.1 l/m2 in 6 Std. Regen
Ortszeit Niederschlagsmenge Niederschlagsart
Di, 19.10. 21:20 keine Meldung -
Di, 19.10. 21:00 0.1 l/m2 in 1 Std. Regenschauer
Di, 19.10. 20:50 keine Meldung -
Di, 19.10. 20:40 keine Meldung -
Di, 19.10. 20:30 0.1 l/m2 in 1 Std. -
Di, 19.10. 20:20 keine Meldung -
Di, 19.10. 20:00 0.1 l/m2 in 1 Std. -
Di, 19.10. 19:30 0.0 l/m2 in 1 Std. -
Di, 19.10. 19:00 0.0 l/m2 in 1 Std. -
Di, 19.10. 18:30 0.0 l/m2 in 1 Std. -
Di, 19.10. 18:00 0.0 l/m2 in 1 Std. -
Ortszeit Stärke Spitze Richtung
km/h Bft. km/h Grad Sektor
Di, 19.10. 20:00 26 4 43 220° SW
Di, 19.10. 14:00 28 4 37 210° SW
Di, 19.10. 8:00 13 3 26 210° SW
Di, 19.10. 2:00 14 3 25 190° S
Mo, 18.10. 20:00 11 2 25 200° S
Mo, 18.10. 14:00 18 3 25 220° SW
Mo, 18.10. 8:00 14 3 22 200° S
Mo, 18.10. 2:00 7 2 11 200° S
Ortszeit Stärke Spitze Richtung
km/h Bft. km/h Grad Sektor
Di, 19.10. 21:20 19 3 - 210° SW
Di, 19.10. 21:00 24 4 35 220° SW
Di, 19.10. 20:50 24 4 - 220° SW
Di, 19.10. 20:40 25 4 - 220° SW
Di, 19.10. 20:30 22 4 35 220° SW
Di, 19.10. 20:20 22 4 - 220° SW
Di, 19.10. 20:00 26 4 37 220° SW
Di, 19.10. 19:30 25 4 32 220° SW
Di, 19.10. 19:00 22 4 30 210° SW
Di, 19.10. 18:30 20 4 30 210° SW
Di, 19.10. 18:00 22 4 36 210° SW
Ortszeit Untergrenze Bedeckung Gattung
total tief tief mittel hoch
Di, 19.10. 20:00 240 m 7/8 7/8 Cu - -
Di, 19.10. 14:00 1320 m 8/8 3/8 Sc As -
Di, 19.10. 8:00 1200 m 8/8 3/8 Sc As -
Di, 19.10. 2:00 3000 m 7/8 1/8 - Ac Cs
Mo, 18.10. 20:00 3000 m 7/8 4/8 - Ns Cs
Mo, 18.10. 14:00 9000 m 6/8 0/8 - - Ci
Mo, 18.10. 8:00 2100 m 6/8 6/8 Sc - -
Mo, 18.10. 2:00 1800 m 7/8 7/8 Sc - -
Ortszeit Bedeckungsgrad in Achtel und Wolkenuntergrenze
Di, 19.10. 21:20 5-7(480m)
Di, 19.10. 21:00 7(480m)
Di, 19.10. 20:50 -
Di, 19.10. 20:40 -
Di, 19.10. 20:30 -
Di, 19.10. 20:20 -
Di, 19.10. 20:00 2(240m) 5(600m) 5(1380m)
Di, 19.10. 19:30 -
Di, 19.10. 19:00 7(600m)
Di, 19.10. 18:30 -
Di, 19.10. 18:00 6(750m) 7(1320m) 8
Ortszeit Luftdruck NN (hPa) Tendenz (hPa in 3 Std.)
Di, 19.10. 20:00 1018 - 0,5
Di, 19.10. 14:00 1020 - 1,5
Di, 19.10. 8:00 1022 0,0
Di, 19.10. 2:00 1023 - 1,1
Mo, 18.10. 20:00 1024 - 0,3
Mo, 18.10. 14:00 1025 - 0,4
Mo, 18.10. 8:00 1024 + 0,6
Mo, 18.10. 2:00 1024 + 0,5
Ortszeit Luftdruck NN (hPa) Tendenz (hPa in 3 Std.)
Di, 19.10. 21:20 1017 keine Meldung
Di, 19.10. 21:00 1018 - 0,3
Di, 19.10. 20:50 1018 keine Meldung
Di, 19.10. 20:40 1018 keine Meldung
Di, 19.10. 20:30 1018 - 0,2
Di, 19.10. 20:20 1018 keine Meldung
Di, 19.10. 20:00 1018 - 0,5
Di, 19.10. 19:30 1018 - 0,8
Di, 19.10. 19:00 1018 - 0,8
Di, 19.10. 18:30 1018 - 0,9
Di, 19.10. 18:00 1018 - 1,0
Ortszeit Schneehöhe (cm)
Di, 19.10. 20:00 0
Di, 19.10. 14:00 0
Di, 19.10. 8:00 0
Di, 19.10. 2:00 0
Mo, 18.10. 20:00 0
Mo, 18.10. 14:00 0
Mo, 18.10. 8:00 0
Mo, 18.10. 2:00 0
Ortszeit Schneehöhe (cm)
Di, 19.10. 21:20 -
Di, 19.10. 21:00 0
Di, 19.10. 20:50 0
Di, 19.10. 20:40 0
Di, 19.10. 20:30 0
Di, 19.10. 20:20 0
Di, 19.10. 20:00 0
Di, 19.10. 19:30 0
Di, 19.10. 19:00 0
Di, 19.10. 18:30 0
Di, 19.10. 18:00 0
Link zu dieser Seite / Seite empfehlen

Das Wetter in ...